sensor_id;sensor_type;location;lat;lon;timestamp;P1;durP1;ratioP1;P2;durP2;ratioP2
42866;SDS011;39461;40.948;73.006;2023-02-19T00:01:25;80.65;;;43.85;;
42866;SDS011;39461;40.948;73.006;2023-02-19T00:04:03;111.50;;;71.30;;
42866;SDS011;39461;40.948;73.006;2023-02-19T00:06:37;109.78;;;69.28;;
42866;SDS011;39461;40.948;73.006;2023-02-19T00:09:17;83.78;;;53.22;;
42866;SDS011;39461;40.948;73.006;2023-02-19T00:11:51;65.85;;;41.63;;
42866;SDS011;39461;40.948;73.006;2023-02-19T00:14:24;60.58;;;35.42;;
42866;SDS011;39461;40.948;73.006;2023-02-19T00:16:57;57.63;;;33.05;;
42866;SDS011;39461;40.948;73.006;2023-02-19T00:19:29;52.28;;;29.50;;
42866;SDS011;39461;40.948;73.006;2023-02-19T00:22:02;48.13;;;28.67;;
42866;SDS011;39461;40.948;73.006;2023-02-19T00:24:35;48.55;;;27.70;;
42866;SDS011;39461;40.948;73.006;2023-02-19T00:27:09;41.78;;;25.80;;
42866;SDS011;39461;40.948;73.006;2023-02-19T00:29:42;42.63;;;24.05;;
42866;SDS011;39461;40.948;73.006;2023-02-19T00:32:15;41.95;;;23.95;;
42866;SDS011;39461;40.948;73.006;2023-02-19T00:34:50;41.92;;;24.15;;
42866;SDS011;39461;40.948;73.006;2023-02-19T00:37:25;41.33;;;23.20;;
42866;SDS011;39461;40.948;73.006;2023-02-19T00:39:58;40.40;;;22.35;;
42866;SDS011;39461;40.948;73.006;2023-02-19T00:42:31;37.65;;;21.55;;
42866;SDS011;39461;40.948;73.006;2023-02-19T00:45:04;37.42;;;22.48;;
42866;SDS011;39461;40.948;73.006;2023-02-19T00:47:38;37.33;;;22.35;;
42866;SDS011;39461;40.948;73.006;2023-02-19T00:50:11;33.42;;;20.50;;
42866;SDS011;39461;40.948;73.006;2023-02-19T00:52:44;37.80;;;22.45;;
42866;SDS011;39461;40.948;73.006;2023-02-19T00:55:17;40.05;;;23.55;;
42866;SDS011;39461;40.948;73.006;2023-02-19T00:57:50;36.67;;;23.30;;
42866;SDS011;39461;40.948;73.006;2023-02-19T01:00:24;35.67;;;22.50;;
42866;SDS011;39461;40.948;73.006;2023-02-19T01:02:57;36.65;;;22.35;;
42866;SDS011;39461;40.948;73.006;2023-02-19T01:05:30;36.90;;;21.65;;
42866;SDS011;39461;40.948;73.006;2023-02-19T01:08:07;35.10;;;22.30;;
42866;SDS011;39461;40.948;73.006;2023-02-19T01:10:40;38.30;;;23.15;;
42866;SDS011;39461;40.948;73.006;2023-02-19T01:13:19;35.92;;;23.50;;
42866;SDS011;39461;40.948;73.006;2023-02-19T01:15:53;45.10;;;28.73;;
42866;SDS011;39461;40.948;73.006;2023-02-19T01:18:34;42.05;;;27.17;;
42866;SDS011;39461;40.948;73.006;2023-02-19T01:21:12;42.28;;;28.55;;
42866;SDS011;39461;40.948;73.006;2023-02-19T01:23:46;45.20;;;29.17;;
42866;SDS011;39461;40.948;73.006;2023-02-19T01:26:21;52.42;;;30.95;;
42866;SDS011;39461;40.948;73.006;2023-02-19T01:28:54;40.92;;;26.42;;
42866;SDS011;39461;40.948;73.006;2023-02-19T01:31:27;42.17;;;28.80;;
42866;SDS011;39461;40.948;73.006;2023-02-19T01:34:08;40.55;;;26.35;;
42866;SDS011;39461;40.948;73.006;2023-02-19T01:36:43;41.50;;;27.55;;
42866;SDS011;39461;40.948;73.006;2023-02-19T01:39:16;47.90;;;30.77;;
42866;SDS011;39461;40.948;73.006;2023-02-19T01:41:56;58.20;;;33.97;;
42866;SDS011;39461;40.948;73.006;2023-02-19T01:47:02;60.13;;;37.08;;
42866;SDS011;39461;40.948;73.006;2023-02-19T01:49:42;69.47;;;42.72;;
42866;SDS011;39461;40.948;73.006;2023-02-19T01:52:29;70.88;;;45.10;;
42866;SDS011;39461;40.948;73.006;2023-02-19T01:55:04;70.05;;;47.00;;
42866;SDS011;39461;40.948;73.006;2023-02-19T01:57:43;73.13;;;44.58;;
42866;SDS011;39461;40.948;73.006;2023-02-19T02:00:16;72.63;;;42.22;;
42866;SDS011;39461;40.948;73.006;2023-02-19T02:02:50;63.40;;;40.97;;
42866;SDS011;39461;40.948;73.006;2023-02-19T02:07:57;58.42;;;38.90;;
42866;SDS011;39461;40.948;73.006;2023-02-19T02:10:49;53.53;;;33.97;;
42866;SDS011;39461;40.948;73.006;2023-02-19T02:13:31;54.88;;;32.33;;
42866;SDS011;39461;40.948;73.006;2023-02-19T02:31:58;33.80;;;21.02;;
42866;SDS011;39461;40.948;73.006;2023-02-19T02:34:40;31.27;;;21.92;;
42866;SDS011;39461;40.948;73.006;2023-02-19T02:37:17;33.55;;;21.00;;
42866;SDS011;39461;40.948;73.006;2023-02-19T02:39:50;37.38;;;24.33;;
42866;SDS011;39461;40.948;73.006;2023-02-19T02:42:24;35.05;;;21.30;;
42866;SDS011;39461;40.948;73.006;2023-02-19T02:45:43;45.10;;;25.80;;
42866;SDS011;39461;40.948;73.006;2023-02-19T02:53:35;36.55;;;23.52;;
42866;SDS011;39461;40.948;73.006;2023-02-19T02:56:28;31.92;;;22.92;;
42866;SDS011;39461;40.948;73.006;2023-02-19T02:59:03;37.50;;;24.55;;
42866;SDS011;39461;40.948;73.006;2023-02-19T03:04:40;39.00;;;26.80;;
42866;SDS011;39461;40.948;73.006;2023-02-19T03:07:44;42.15;;;26.52;;
42866;SDS011;39461;40.948;73.006;2023-02-19T03:13:33;42.63;;;27.90;;
42866;SDS011;39461;40.948;73.006;2023-02-19T03:16:29;43.83;;;28.80;;
42866;SDS011;39461;40.948;73.006;2023-02-19T03:19:26;49.22;;;29.73;;
42866;SDS011;39461;40.948;73.006;2023-02-19T03:22:07;44.20;;;28.77;;
42866;SDS011;39461;40.948;73.006;2023-02-19T03:25:02;68.20;;;40.00;;
42866;SDS011;39461;40.948;73.006;2023-02-19T03:27:55;77.68;;;43.72;;
42866;SDS011;39461;40.948;73.006;2023-02-19T03:30:33;95.47;;;51.40;;
42866;SDS011;39461;40.948;73.006;2023-02-19T03:33:13;89.68;;;51.95;;
42866;SDS011;39461;40.948;73.006;2023-02-19T03:36:05;88.40;;;52.67;;
42866;SDS011;39461;40.948;73.006;2023-02-19T03:38:47;84.55;;;50.22;;
42866;SDS011;39461;40.948;73.006;2023-02-19T03:44:15;84.25;;;51.88;;
42866;SDS011;39461;40.948;73.006;2023-02-19T03:46:53;89.55;;;56.70;;
42866;SDS011;39461;40.948;73.006;2023-02-19T03:54:53;95.25;;;56.97;;
42866;SDS011;39461;40.948;73.006;2023-02-19T03:57:36;96.40;;;59.75;;
42866;SDS011;39461;40.948;73.006;2023-02-19T04:00:17;95.90;;;59.67;;
42866;SDS011;39461;40.948;73.006;2023-02-19T04:02:55;78.63;;;47.25;;
42866;SDS011;39461;40.948;73.006;2023-02-19T04:05:29;76.38;;;48.95;;
42866;SDS011;39461;40.948;73.006;2023-02-19T04:08:07;74.93;;;47.70;;
42866;SDS011;39461;40.948;73.006;2023-02-19T04:10:40;79.10;;;50.67;;
42866;SDS011;39461;40.948;73.006;2023-02-19T04:13:25;81.75;;;51.88;;
42866;SDS011;39461;40.948;73.006;2023-02-19T04:16:00;63.55;;;40.17;;
42866;SDS011;39461;40.948;73.006;2023-02-19T04:18:38;65.82;;;42.45;;
42866;SDS011;39461;40.948;73.006;2023-02-19T04:21:12;56.00;;;36.90;;
42866;SDS011;39461;40.948;73.006;2023-02-19T04:23:43;49.15;;;31.00;;
42866;SDS011;39461;40.948;73.006;2023-02-19T04:26:12;59.75;;;36.42;;
42866;SDS011;39461;40.948;73.006;2023-02-19T04:28:46;49.00;;;32.25;;
42866;SDS011;39461;40.948;73.006;2023-02-19T04:31:19;38.38;;;26.75;;
42866;SDS011;39461;40.948;73.006;2023-02-19T04:33:52;47.40;;;31.42;;
42866;SDS011;39461;40.948;73.006;2023-02-19T04:36:25;51.10;;;32.40;;
42866;SDS011;39461;40.948;73.006;2023-02-19T04:38:59;34.53;;;23.20;;
42866;SDS011;39461;40.948;73.006;2023-02-19T04:41:32;45.85;;;29.25;;
42866;SDS011;39461;40.948;73.006;2023-02-19T04:44:05;30.05;;;21.27;;
42866;SDS011;39461;40.948;73.006;2023-02-19T04:46:39;31.65;;;22.35;;
42866;SDS011;39461;40.948;73.006;2023-02-19T04:49:12;31.45;;;21.85;;
42866;SDS011;39461;40.948;73.006;2023-02-19T04:51:45;34.08;;;21.20;;
42866;SDS011;39461;40.948;73.006;2023-02-19T04:54:18;25.73;;;20.02;;
42866;SDS011;39461;40.948;73.006;2023-02-19T04:56:51;30.58;;;20.73;;
42866;SDS011;39461;40.948;73.006;2023-02-19T04:59:31;33.58;;;22.20;;
42866;SDS011;39461;40.948;73.006;2023-02-19T05:02:04;31.05;;;20.83;;
42866;SDS011;39461;40.948;73.006;2023-02-19T05:04:37;32.05;;;22.02;;
42866;SDS011;39461;40.948;73.006;2023-02-19T05:07:10;29.30;;;20.50;;
42866;SDS011;39461;40.948;73.006;2023-02-19T05:09:43;28.38;;;19.38;;
42866;SDS011;39461;40.948;73.006;2023-02-19T05:12:16;27.00;;;19.23;;
42866;SDS011;39461;40.948;73.006;2023-02-19T05:14:49;32.42;;;22.35;;
42866;SDS011;39461;40.948;73.006;2023-02-19T05:17:22;28.65;;;20.77;;
42866;SDS011;39461;40.948;73.006;2023-02-19T05:20:01;29.80;;;20.83;;
42866;SDS011;39461;40.948;73.006;2023-02-19T05:22:34;33.40;;;22.45;;
42866;SDS011;39461;40.948;73.006;2023-02-19T05:25:10;34.53;;;23.20;;
42866;SDS011;39461;40.948;73.006;2023-02-19T05:27:43;32.92;;;22.42;;
42866;SDS011;39461;40.948;73.006;2023-02-19T05:30:16;29.67;;;20.63;;
42866;SDS011;39461;40.948;73.006;2023-02-19T05:32:49;40.67;;;25.88;;
42866;SDS011;39461;40.948;73.006;2023-02-19T05:35:24;33.35;;;25.17;;
42866;SDS011;39461;40.948;73.006;2023-02-19T05:37:57;38.78;;;26.13;;
42866;SDS011;39461;40.948;73.006;2023-02-19T05:40:30;34.97;;;23.20;;
42866;SDS011;39461;40.948;73.006;2023-02-19T05:43:04;81.05;;;48.92;;
42866;SDS011;39461;40.948;73.006;2023-02-19T05:45:37;36.75;;;25.42;;
42866;SDS011;39461;40.948;73.006;2023-02-19T05:48:10;37.38;;;24.42;;
42866;SDS011;39461;40.948;73.006;2023-02-19T05:50:43;43.65;;;28.60;;
42866;SDS011;39461;40.948;73.006;2023-02-19T05:53:16;46.83;;;32.58;;
42866;SDS011;39461;40.948;73.006;2023-02-19T05:55:49;48.42;;;35.05;;
42866;SDS011;39461;40.948;73.006;2023-02-19T05:58:24;49.85;;;35.30;;
42866;SDS011;39461;40.948;73.006;2023-02-19T06:00:57;45.83;;;33.85;;
42866;SDS011;39461;40.948;73.006;2023-02-19T06:03:35;44.22;;;30.42;;
42866;SDS011;39461;40.948;73.006;2023-02-19T06:06:08;41.53;;;28.65;;
42866;SDS011;39461;40.948;73.006;2023-02-19T06:08:42;37.63;;;25.63;;
42866;SDS011;39461;40.948;73.006;2023-02-19T06:11:16;63.80;;;27.98;;
42866;SDS011;39461;40.948;73.006;2023-02-19T06:13:49;32.92;;;17.25;;
42866;SDS011;39461;40.948;73.006;2023-02-19T06:16:22;19.92;;;13.23;;
42866;SDS011;39461;40.948;73.006;2023-02-19T06:18:55;24.33;;;17.75;;
42866;SDS011;39461;40.948;73.006;2023-02-19T06:21:28;35.03;;;25.70;;
42866;SDS011;39461;40.948;73.006;2023-02-19T06:23:57;40.33;;;26.85;;
42866;SDS011;39461;40.948;73.006;2023-02-19T06:26:26;40.85;;;29.90;;
42866;SDS011;39461;40.948;73.006;2023-02-19T06:29:01;38.30;;;25.60;;
42866;SDS011;39461;40.948;73.006;2023-02-19T06:31:34;42.03;;;29.45;;
42866;SDS011;39461;40.948;73.006;2023-02-19T06:34:07;42.20;;;30.27;;
42866;SDS011;39461;40.948;73.006;2023-02-19T06:36:40;45.85;;;26.15;;
42866;SDS011;39461;40.948;73.006;2023-02-19T06:39:13;53.45;;;26.83;;
42866;SDS011;39461;40.948;73.006;2023-02-19T06:41:46;35.88;;;26.42;;
42866;SDS011;39461;40.948;73.006;2023-02-19T06:44:19;37.13;;;26.25;;
42866;SDS011;39461;40.948;73.006;2023-02-19T06:46:54;31.83;;;23.13;;
42866;SDS011;39461;40.948;73.006;2023-02-19T06:49:27;32.10;;;23.58;;
42866;SDS011;39461;40.948;73.006;2023-02-19T06:52:00;36.95;;;25.80;;
42866;SDS011;39461;40.948;73.006;2023-02-19T06:54:34;33.92;;;24.73;;
42866;SDS011;39461;40.948;73.006;2023-02-19T06:57:07;42.08;;;30.40;;
42866;SDS011;39461;40.948;73.006;2023-02-19T06:59:40;35.03;;;26.75;;
42866;SDS011;39461;40.948;73.006;2023-02-19T07:02:13;44.70;;;30.77;;
42866;SDS011;39461;40.948;73.006;2023-02-19T07:04:46;38.30;;;28.83;;
42866;SDS011;39461;40.948;73.006;2023-02-19T07:07:19;43.03;;;30.92;;
42866;SDS011;39461;40.948;73.006;2023-02-19T07:09:53;38.88;;;28.48;;
42866;SDS011;39461;40.948;73.006;2023-02-19T07:12:26;40.05;;;30.25;;
42866;SDS011;39461;40.948;73.006;2023-02-19T07:15:01;43.78;;;32.60;;
42866;SDS011;39461;40.948;73.006;2023-02-19T07:17:35;41.70;;;32.58;;
42866;SDS011;39461;40.948;73.006;2023-02-19T07:20:08;42.78;;;30.77;;
42866;SDS011;39461;40.948;73.006;2023-02-19T07:22:42;48.92;;;33.65;;
42866;SDS011;39461;40.948;73.006;2023-02-19T07:25:16;44.22;;;30.83;;
42866;SDS011;39461;40.948;73.006;2023-02-19T07:27:52;41.50;;;31.80;;
42866;SDS011;39461;40.948;73.006;2023-02-19T07:30:32;49.22;;;35.45;;
42866;SDS011;39461;40.948;73.006;2023-02-19T07:33:05;59.70;;;40.92;;
42866;SDS011;39461;40.948;73.006;2023-02-19T07:35:44;54.55;;;39.92;;
42866;SDS011;39461;40.948;73.006;2023-02-19T07:38:18;63.88;;;45.20;;
42866;SDS011;39461;40.948;73.006;2023-02-19T07:40:52;63.90;;;44.17;;
42866;SDS011;39461;40.948;73.006;2023-02-19T07:43:27;63.45;;;44.50;;
42866;SDS011;39461;40.948;73.006;2023-02-19T07:46:04;62.70;;;46.53;;
42866;SDS011;39461;40.948;73.006;2023-02-19T07:48:39;63.50;;;47.17;;
42866;SDS011;39461;40.948;73.006;2023-02-19T07:51:14;68.18;;;47.15;;
42866;SDS011;39461;40.948;73.006;2023-02-19T07:53:49;64.43;;;47.30;;
42866;SDS011;39461;40.948;73.006;2023-02-19T07:56:23;63.92;;;45.83;;
42866;SDS011;39461;40.948;73.006;2023-02-19T07:58:56;60.58;;;45.35;;
42866;SDS011;39461;40.948;73.006;2023-02-19T08:01:31;71.53;;;48.88;;
42866;SDS011;39461;40.948;73.006;2023-02-19T08:04:23;67.88;;;49.70;;
42866;SDS011;39461;40.948;73.006;2023-02-19T08:06:58;67.88;;;52.28;;
42866;SDS011;39461;40.948;73.006;2023-02-19T08:09:32;65.82;;;47.85;;
42866;SDS011;39461;40.948;73.006;2023-02-19T08:12:07;67.32;;;48.58;;
42866;SDS011;39461;40.948;73.006;2023-02-19T08:15:00;66.85;;;48.80;;
42866;SDS011;39461;40.948;73.006;2023-02-19T08:17:33;69.78;;;50.90;;
42866;SDS011;39461;40.948;73.006;2023-02-19T08:20:07;70.63;;;48.67;;
42866;SDS011;39461;40.948;73.006;2023-02-19T08:22:36;66.35;;;47.25;;
42866;SDS011;39461;40.948;73.006;2023-02-19T08:25:06;63.20;;;48.40;;
42866;SDS011;39461;40.948;73.006;2023-02-19T08:27:39;61.35;;;46.78;;
42866;SDS011;39461;40.948;73.006;2023-02-19T08:30:12;60.20;;;44.50;;
42866;SDS011;39461;40.948;73.006;2023-02-19T08:32:45;65.65;;;47.20;;
42866;SDS011;39461;40.948;73.006;2023-02-19T08:35:19;66.45;;;46.03;;
42866;SDS011;39461;40.948;73.006;2023-02-19T08:37:58;61.45;;;47.42;;
42866;SDS011;39461;40.948;73.006;2023-02-19T08:40:32;68.28;;;51.00;;
42866;SDS011;39461;40.948;73.006;2023-02-19T08:43:09;70.85;;;51.80;;
42866;SDS011;39461;40.948;73.006;2023-02-19T08:45:43;71.90;;;48.33;;
42866;SDS011;39461;40.948;73.006;2023-02-19T08:48:17;70.07;;;50.60;;
42866;SDS011;39461;40.948;73.006;2023-02-19T08:50:56;67.63;;;51.10;;
42866;SDS011;39461;40.948;73.006;2023-02-19T08:53:30;67.97;;;51.22;;
42866;SDS011;39461;40.948;73.006;2023-02-19T08:56:07;69.03;;;50.97;;
42866;SDS011;39461;40.948;73.006;2023-02-19T08:58:41;66.07;;;50.88;;
42866;SDS011;39461;40.948;73.006;2023-02-19T09:01:15;64.18;;;50.05;;
42866;SDS011;39461;40.948;73.006;2023-02-19T09:03:51;60.70;;;48.15;;
42866;SDS011;39461;40.948;73.006;2023-02-19T09:06:25;68.72;;;51.80;;
42866;SDS011;39461;40.948;73.006;2023-02-19T09:08:59;65.22;;;51.30;;
42866;SDS011;39461;40.948;73.006;2023-02-19T09:11:32;68.97;;;48.40;;
42866;SDS011;39461;40.948;73.006;2023-02-19T09:14:07;62.17;;;48.15;;
42866;SDS011;39461;40.948;73.006;2023-02-19T09:16:47;63.40;;;46.90;;
42866;SDS011;39461;40.948;73.006;2023-02-19T09:19:20;53.88;;;44.30;;
42866;SDS011;39461;40.948;73.006;2023-02-19T09:21:53;59.33;;;46.13;;
42866;SDS011;39461;40.948;73.006;2023-02-19T09:24:29;60.40;;;45.50;;
42866;SDS011;39461;40.948;73.006;2023-02-19T09:27:02;60.60;;;46.22;;
42866;SDS011;39461;40.948;73.006;2023-02-19T09:29:35;74.78;;;46.72;;
42866;SDS011;39461;40.948;73.006;2023-02-19T09:32:08;55.75;;;42.78;;
42866;SDS011;39461;40.948;73.006;2023-02-19T09:34:44;54.45;;;41.75;;
42866;SDS011;39461;40.948;73.006;2023-02-19T09:37:17;47.05;;;38.40;;
42866;SDS011;39461;40.948;73.006;2023-02-19T09:39:50;54.67;;;40.10;;
42866;SDS011;39461;40.948;73.006;2023-02-19T09:42:23;47.13;;;38.47;;
42866;SDS011;39461;40.948;73.006;2023-02-19T09:44:58;50.08;;;40.00;;
42866;SDS011;39461;40.948;73.006;2023-02-19T09:47:32;47.65;;;37.80;;
42866;SDS011;39461;40.948;73.006;2023-02-19T09:50:07;53.17;;;40.65;;
42866;SDS011;39461;40.948;73.006;2023-02-19T09:52:50;51.97;;;39.55;;
42866;SDS011;39461;40.948;73.006;2023-02-19T09:55:28;49.70;;;39.53;;
42866;SDS011;39461;40.948;73.006;2023-02-19T09:58:08;62.97;;;49.33;;
42866;SDS011;39461;40.948;73.006;2023-02-19T10:00:53;49.13;;;39.45;;
42866;SDS011;39461;40.948;73.006;2023-02-19T10:03:36;49.20;;;38.00;;
42866;SDS011;39461;40.948;73.006;2023-02-19T10:09:13;47.47;;;38.95;;
42866;SDS011;39461;40.948;73.006;2023-02-19T10:11:42;45.85;;;36.78;;
42866;SDS011;39461;40.948;73.006;2023-02-19T10:17:16;43.75;;;35.33;;
42866;SDS011;39461;40.948;73.006;2023-02-19T10:19:54;44.08;;;36.13;;
42866;SDS011;39461;40.948;73.006;2023-02-19T10:22:27;49.90;;;40.42;;
42866;SDS011;39461;40.948;73.006;2023-02-19T10:24:57;51.60;;;40.70;;
42866;SDS011;39461;40.948;73.006;2023-02-19T10:27:30;54.50;;;39.92;;
42866;SDS011;39461;40.948;73.006;2023-02-19T10:30:03;56.90;;;42.35;;
42866;SDS011;39461;40.948;73.006;2023-02-19T10:32:37;62.92;;;43.95;;
42866;SDS011;39461;40.948;73.006;2023-02-19T10:35:29;79.20;;;56.28;;
42866;SDS011;39461;40.948;73.006;2023-02-19T10:38:04;59.42;;;44.40;;
42866;SDS011;39461;40.948;73.006;2023-02-19T10:40:39;62.65;;;48.45;;
42866;SDS011;39461;40.948;73.006;2023-02-19T10:43:19;68.38;;;47.92;;
42866;SDS011;39461;40.948;73.006;2023-02-19T10:45:54;55.58;;;41.38;;
42866;SDS011;39461;40.948;73.006;2023-02-19T10:48:28;65.47;;;49.08;;
42866;SDS011;39461;40.948;73.006;2023-02-19T10:51:06;85.07;;;61.22;;
42866;SDS011;39461;40.948;73.006;2023-02-19T10:53:41;65.57;;;50.50;;
42866;SDS011;39461;40.948;73.006;2023-02-19T10:56:24;60.42;;;47.25;;
42866;SDS011;39461;40.948;73.006;2023-02-19T10:59:18;59.65;;;46.78;;
42866;SDS011;39461;40.948;73.006;2023-02-19T11:02:03;69.15;;;52.92;;
42866;SDS011;39461;40.948;73.006;2023-02-19T11:13:02;62.50;;;45.70;;
42866;SDS011;39461;40.948;73.006;2023-02-19T11:15:36;114.38;;;77.30;;
42866;SDS011;39461;40.948;73.006;2023-02-19T11:20:54;81.43;;;66.03;;
42866;SDS011;39461;40.948;73.006;2023-02-19T11:23:35;66.63;;;50.45;;
42866;SDS011;39461;40.948;73.006;2023-02-19T11:26:18;74.75;;;57.05;;
42866;SDS011;39461;40.948;73.006;2023-02-19T11:28:56;77.70;;;56.45;;
42866;SDS011;39461;40.948;73.006;2023-02-19T11:31:30;92.95;;;70.68;;
42866;SDS011;39461;40.948;73.006;2023-02-19T11:40:00;76.63;;;54.70;;
42866;SDS011;39461;40.948;73.006;2023-02-19T11:45:43;86.00;;;62.13;;
42866;SDS011;39461;40.948;73.006;2023-02-19T11:51:20;70.72;;;52.50;;
42866;SDS011;39461;40.948;73.006;2023-02-19T11:54:10;85.97;;;57.28;;
42866;SDS011;39461;40.948;73.006;2023-02-19T11:56:48;96.68;;;63.22;;
42866;SDS011;39461;40.948;73.006;2023-02-19T12:13:54;101.78;;;72.07;;
42866;SDS011;39461;40.948;73.006;2023-02-19T12:16:38;107.32;;;71.32;;
42866;SDS011;39461;40.948;73.006;2023-02-19T12:38:28;127.68;;;78.78;;
42866;SDS011;39461;40.948;73.006;2023-02-19T12:41:12;151.80;;;99.68;;
42866;SDS011;39461;40.948;73.006;2023-02-19T12:46:47;151.05;;;95.55;;
42866;SDS011;39461;40.948;73.006;2023-02-19T12:49:30;161.25;;;101.32;;
42866;SDS011;39461;40.948;73.006;2023-02-19T12:52:21;167.63;;;102.53;;
42866;SDS011;39461;40.948;73.006;2023-02-19T12:54:57;158.63;;;103.25;;
42866;SDS011;39461;40.948;73.006;2023-02-19T12:57:33;163.50;;;105.50;;
42866;SDS011;39461;40.948;73.006;2023-02-19T13:08:28;179.75;;;106.57;;
42866;SDS011;39461;40.948;73.006;2023-02-19T13:11:15;189.05;;;106.15;;
42866;SDS011;39461;40.948;73.006;2023-02-19T13:13:56;179.30;;;111.07;;
42866;SDS011;39461;40.948;73.006;2023-02-19T13:16:36;224.27;;;131.40;;
42866;SDS011;39461;40.948;73.006;2023-02-19T13:19:12;244.90;;;139.88;;
42866;SDS011;39461;40.948;73.006;2023-02-19T13:21:50;215.70;;;126.75;;
42866;SDS011;39461;40.948;73.006;2023-02-19T13:38:30;217.80;;;131.75;;
42866;SDS011;39461;40.948;73.006;2023-02-19T13:41:06;201.98;;;120.70;;
42866;SDS011;39461;40.948;73.006;2023-02-19T13:44:00;237.05;;;140.65;;
42866;SDS011;39461;40.948;73.006;2023-02-19T13:46:40;242.65;;;135.50;;
42866;SDS011;39461;40.948;73.006;2023-02-19T13:51:57;260.02;;;143.27;;
42866;SDS011;39461;40.948;73.006;2023-02-19T13:54:33;268.48;;;143.55;;
42866;SDS011;39461;40.948;73.006;2023-02-19T13:59:50;306.30;;;172.02;;
42866;SDS011;39461;40.948;73.006;2023-02-19T14:02:25;292.67;;;161.50;;
42866;SDS011;39461;40.948;73.006;2023-02-19T14:05:08;276.27;;;154.40;;
42866;SDS011;39461;40.948;73.006;2023-02-19T14:07:49;308.70;;;165.07;;
42866;SDS011;39461;40.948;73.006;2023-02-19T14:19:12;287.60;;;158.65;;
42866;SDS011;39461;40.948;73.006;2023-02-19T14:21:45;289.23;;;148.43;;
42866;SDS011;39461;40.948;73.006;2023-02-19T14:24:15;296.77;;;151.68;;
42866;SDS011;39461;40.948;73.006;2023-02-19T14:26:46;344.45;;;162.95;;
42866;SDS011;39461;40.948;73.006;2023-02-19T14:29:19;344.10;;;164.38;;
42866;SDS011;39461;40.948;73.006;2023-02-19T14:31:52;311.80;;;154.23;;
42866;SDS011;39461;40.948;73.006;2023-02-19T14:34:27;309.05;;;153.60;;
42866;SDS011;39461;40.948;73.006;2023-02-19T14:37:02;305.95;;;148.45;;
42866;SDS011;39461;40.948;73.006;2023-02-19T14:39:40;240.10;;;122.38;;
42866;SDS011;39461;40.948;73.006;2023-02-19T14:42:16;203.20;;;111.70;;
42866;SDS011;39461;40.948;73.006;2023-02-19T14:44:53;157.15;;;88.07;;
42866;SDS011;39461;40.948;73.006;2023-02-19T14:47:28;197.68;;;103.93;;
42866;SDS011;39461;40.948;73.006;2023-02-19T14:50:04;202.07;;;119.10;;
42866;SDS011;39461;40.948;73.006;2023-02-19T14:52:40;293.88;;;174.63;;
42866;SDS011;39461;40.948;73.006;2023-02-19T14:55:22;309.42;;;189.55;;
42866;SDS011;39461;40.948;73.006;2023-02-19T14:57:58;282.65;;;166.20;;
42866;SDS011;39461;40.948;73.006;2023-02-19T15:00:35;255.60;;;147.00;;
42866;SDS011;39461;40.948;73.006;2023-02-19T15:03:28;229.00;;;136.80;;
42866;SDS011;39461;40.948;73.006;2023-02-19T15:06:05;200.15;;;118.43;;
42866;SDS011;39461;40.948;73.006;2023-02-19T15:08:44;236.70;;;140.80;;
42866;SDS011;39461;40.948;73.006;2023-02-19T15:11:21;235.30;;;141.82;;
42866;SDS011;39461;40.948;73.006;2023-02-19T15:14:01;211.93;;;128.77;;
42866;SDS011;39461;40.948;73.006;2023-02-19T15:16:35;208.63;;;121.93;;
42866;SDS011;39461;40.948;73.006;2023-02-19T15:19:09;202.65;;;120.32;;
42866;SDS011;39461;40.948;73.006;2023-02-19T15:21:45;195.93;;;116.50;;
42866;SDS011;39461;40.948;73.006;2023-02-19T15:24:20;161.18;;;96.20;;
42866;SDS011;39461;40.948;73.006;2023-02-19T15:26:53;149.80;;;93.45;;
42866;SDS011;39461;40.948;73.006;2023-02-19T15:29:27;164.57;;;100.43;;
42866;SDS011;39461;40.948;73.006;2023-02-19T15:32:00;155.40;;;96.72;;
42866;SDS011;39461;40.948;73.006;2023-02-19T15:34:35;149.02;;;89.07;;
42866;SDS011;39461;40.948;73.006;2023-02-19T15:37:11;143.38;;;88.97;;
42866;SDS011;39461;40.948;73.006;2023-02-19T15:39:45;130.90;;;76.10;;
42866;SDS011;39461;40.948;73.006;2023-02-19T15:42:27;129.52;;;73.07;;
42866;SDS011;39461;40.948;73.006;2023-02-19T15:47:53;125.25;;;77.78;;
42866;SDS011;39461;40.948;73.006;2023-02-19T15:50:33;136.43;;;79.75;;
42866;SDS011;39461;40.948;73.006;2023-02-19T15:58:39;126.10;;;77.18;;
42866;SDS011;39461;40.948;73.006;2023-02-19T16:01:25;131.63;;;79.68;;
42866;SDS011;39461;40.948;73.006;2023-02-19T16:04:00;131.27;;;79.70;;
42866;SDS011;39461;40.948;73.006;2023-02-19T16:06:48;133.18;;;81.43;;
42866;SDS011;39461;40.948;73.006;2023-02-19T16:09:31;135.60;;;83.40;;
42866;SDS011;39461;40.948;73.006;2023-02-19T16:12:21;168.18;;;98.78;;
42866;SDS011;39461;40.948;73.006;2023-02-19T16:14:55;222.70;;;121.47;;
42866;SDS011;39461;40.948;73.006;2023-02-19T16:17:28;183.57;;;107.40;;
42866;SDS011;39461;40.948;73.006;2023-02-19T16:20:01;177.02;;;106.10;;
42866;SDS011;39461;40.948;73.006;2023-02-19T16:22:33;172.85;;;101.82;;
42866;SDS011;39461;40.948;73.006;2023-02-19T16:25:17;167.32;;;102.70;;
42866;SDS011;39461;40.948;73.006;2023-02-19T16:27:53;171.25;;;105.68;;
42866;SDS011;39461;40.948;73.006;2023-02-19T16:30:30;170.20;;;104.43;;
42866;SDS011;39461;40.948;73.006;2023-02-19T16:35:57;182.38;;;106.90;;
42866;SDS011;39461;40.948;73.006;2023-02-19T16:46:54;152.13;;;93.38;;
42866;SDS011;39461;40.948;73.006;2023-02-19T16:49:28;134.88;;;86.75;;
42866;SDS011;39461;40.948;73.006;2023-02-19T16:52:02;149.90;;;90.70;;
42866;SDS011;39461;40.948;73.006;2023-02-19T16:54:35;143.45;;;87.15;;
42866;SDS011;39461;40.948;73.006;2023-02-19T16:57:08;131.45;;;86.00;;
42866;SDS011;39461;40.948;73.006;2023-02-19T16:59:41;131.65;;;82.22;;
42866;SDS011;39461;40.948;73.006;2023-02-19T17:02:16;145.02;;;84.05;;
42866;SDS011;39461;40.948;73.006;2023-02-19T17:04:49;150.75;;;86.93;;
42866;SDS011;39461;40.948;73.006;2023-02-19T17:07:25;142.80;;;84.65;;
42866;SDS011;39461;40.948;73.006;2023-02-19T17:09:58;134.02;;;81.93;;
42866;SDS011;39461;40.948;73.006;2023-02-19T17:12:31;118.07;;;72.10;;
42866;SDS011;39461;40.948;73.006;2023-02-19T17:15:04;113.45;;;69.32;;
42866;SDS011;39461;40.948;73.006;2023-02-19T17:17:38;109.07;;;68.32;;
42866;SDS011;39461;40.948;73.006;2023-02-19T17:20:17;103.93;;;64.13;;
42866;SDS011;39461;40.948;73.006;2023-02-19T17:22:47;99.95;;;63.08;;
42866;SDS011;39461;40.948;73.006;2023-02-19T17:25:22;80.63;;;54.15;;
42866;SDS011;39461;40.948;73.006;2023-02-19T17:30:55;82.68;;;55.35;;
42866;SDS011;39461;40.948;73.006;2023-02-19T17:33:31;86.97;;;55.22;;
42866;SDS011;39461;40.948;73.006;2023-02-19T17:36:04;92.93;;;56.72;;
42866;SDS011;39461;40.948;73.006;2023-02-19T17:38:37;85.45;;;53.22;;
42866;SDS011;39461;40.948;73.006;2023-02-19T17:41:10;76.05;;;50.47;;